createdAt,value
2023-05-02T00:02:06.269Z,10.63
2023-05-02T00:04:33.647Z,10.95
2023-05-02T00:07:01.093Z,10.48
2023-05-02T00:09:29.330Z,9.60
2023-05-02T00:11:56.133Z,9.50
2023-05-02T00:14:22.959Z,10.45
2023-05-02T00:16:49.747Z,10.48
2023-05-02T00:19:16.588Z,9.70
2023-05-02T00:21:43.463Z,9.38
2023-05-02T00:24:10.748Z,10.63
2023-05-02T00:26:37.662Z,10.70
2023-05-02T00:29:05.261Z,10.38
2023-05-02T00:31:32.109Z,9.10
2023-05-02T00:33:58.911Z,9.60
2023-05-02T00:36:26.817Z,10.68
2023-05-02T00:38:53.788Z,8.85
2023-05-02T00:41:20.609Z,10.82
2023-05-02T00:43:47.396Z,10.65
2023-05-02T00:46:15.405Z,10.43
2023-05-02T00:48:42.559Z,12.02
2023-05-02T00:51:12.197Z,11.52
2023-05-02T00:53:40.683Z,12.70
2023-05-02T00:56:09.602Z,10.65
2023-05-02T00:58:38.898Z,10.98
2023-05-02T01:01:22.722Z,9.68
2023-05-02T01:04:28.828Z,8.88
2023-05-02T01:07:28.486Z,9.45
2023-05-02T01:10:18.075Z,8.88
2023-05-02T01:13:11.926Z,8.18
2023-05-02T01:15:41.206Z,7.47
2023-05-02T01:18:13.074Z,8.32
2023-05-02T01:20:46.595Z,7.28
2023-05-02T01:23:50.367Z,9.05
2023-05-02T01:26:39.056Z,7.40
2023-05-02T01:29:09.792Z,9.15
2023-05-02T01:31:41.833Z,7.90
2023-05-02T01:34:11.491Z,8.98
2023-05-02T01:36:45.015Z,9.80
2023-05-02T01:39:24.134Z,10.18
2023-05-02T01:41:56.008Z,9.75
2023-05-02T01:44:25.002Z,9.73
2023-05-02T01:46:55.862Z,9.52
2023-05-02T01:49:25.331Z,10.23
2023-05-02T01:51:53.284Z,9.00
2023-05-02T01:54:24.213Z,8.82
2023-05-02T01:56:52.385Z,8.30
2023-05-02T01:59:25.534Z,8.77
2023-05-02T02:01:54.171Z,8.77
2023-05-02T02:04:24.037Z,9.05
2023-05-02T02:07:03.503Z,9.55
2023-05-02T02:09:31.641Z,9.13
2023-05-02T02:12:36.774Z,8.75
2023-05-02T02:15:14.485Z,10.43
2023-05-02T02:17:48.236Z,9.82
2023-05-02T02:20:17.387Z,9.77
2023-05-02T02:22:46.648Z,9.55
2023-05-02T02:25:17.164Z,9.48
2023-05-02T02:27:44.620Z,10.40
2023-05-02T02:30:12.593Z,11.93
2023-05-02T02:32:39.776Z,10.60
2023-05-02T02:35:07.526Z,11.10
2023-05-02T02:37:54.089Z,11.98
2023-05-02T02:40:31.122Z,10.02
2023-05-02T02:43:21.180Z,11.32
2023-05-02T02:46:04.185Z,10.85
2023-05-02T02:48:46.293Z,10.88
2023-05-02T02:52:02.708Z,11.25
2023-05-02T02:54:46.896Z,10.35
2023-05-02T02:57:25.968Z,10.23
2023-05-02T03:00:03.987Z,9.95
2023-05-02T03:02:33.859Z,10.05
2023-05-02T03:05:04.571Z,10.40
2023-05-02T03:07:33.024Z,9.90
2023-05-02T03:10:04.920Z,9.77
2023-05-02T03:12:33.795Z,9.13
2023-05-02T03:15:52.213Z,9.10
2023-05-02T03:18:23.388Z,9.75
2023-05-02T03:20:50.852Z,8.30
2023-05-02T03:23:17.719Z,7.68
2023-05-02T03:25:45.068Z,5.97
2023-05-02T03:28:16.709Z,6.82
2023-05-02T03:30:46.465Z,6.00
2023-05-02T03:33:13.643Z,5.28
2023-05-02T03:35:43.999Z,5.00
2023-05-02T03:38:12.437Z,5.20
2023-05-02T03:40:39.209Z,5.60
2023-05-02T03:43:09.774Z,5.63
2023-05-02T03:45:36.656Z,7.07
2023-05-02T03:48:03.672Z,6.05
2023-05-02T03:50:31.133Z,5.40
2023-05-02T03:52:58.657Z,4.93
2023-05-02T03:55:43.173Z,4.43
2023-05-02T03:58:15.497Z,4.35
2023-05-02T04:00:42.644Z,5.13
2023-05-02T04:03:09.754Z,4.70
2023-05-02T04:05:40.773Z,4.18
2023-05-02T04:08:09.986Z,4.35
2023-05-02T04:10:37.565Z,4.05
2023-05-02T04:13:07.388Z,4.32
2023-05-02T04:15:35.750Z,3.25
2023-05-02T04:18:03.217Z,2.83
2023-05-02T04:20:30.879Z,3.08
2023-05-02T04:22:58.199Z,2.50
2023-05-02T04:25:25.908Z,3.05
2023-05-02T04:27:56.076Z,2.60
2023-05-02T04:30:25.119Z,3.00
2023-05-02T04:33:06.284Z,2.65
2023-05-02T04:35:36.162Z,2.30
2023-05-02T04:38:04.585Z,2.92
2023-05-02T04:40:33.149Z,2.53
2023-05-02T04:45:39.675Z,2.60
2023-05-02T04:48:12.732Z,2.05
2023-05-02T04:50:39.690Z,2.17
2023-05-02T04:53:06.593Z,2.53
2023-05-02T04:55:33.846Z,2.47
2023-05-02T04:58:01.007Z,2.20
2023-05-02T05:00:28.749Z,2.10
2023-05-02T05:02:55.719Z,1.80
2023-05-02T05:05:22.678Z,2.00
2023-05-02T05:07:49.922Z,2.10
2023-05-02T05:10:17.738Z,2.60
2023-05-02T05:12:46.577Z,2.63
2023-05-02T05:15:14.529Z,2.88
2023-05-02T05:17:45.576Z,2.03
2023-05-02T05:20:12.778Z,2.28
2023-05-02T05:22:42.360Z,2.42
2023-05-02T05:25:11.871Z,2.00
2023-05-02T05:27:39.747Z,2.10
2023-05-02T05:30:11.358Z,2.00
2023-05-02T05:32:39.765Z,1.90
2023-05-02T05:35:07.537Z,2.42
2023-05-02T05:37:37.452Z,2.42
2023-05-02T05:40:09.825Z,2.17
2023-05-02T05:42:38.270Z,2.65
2023-05-02T05:45:11.038Z,2.63
2023-05-02T05:47:38.096Z,2.50
2023-05-02T05:50:06.693Z,2.60
2023-05-02T05:52:33.480Z,2.00
2023-05-02T05:55:02.102Z,3.08
2023-05-02T05:57:29.783Z,2.38
2023-05-02T05:59:57.536Z,2.22
2023-05-02T06:02:24.995Z,3.20
2023-05-02T06:04:51.883Z,2.42
2023-05-02T06:07:21.838Z,2.28
2023-05-02T06:09:49.131Z,2.47
2023-05-02T06:12:16.684Z,2.33
2023-05-02T06:14:45.053Z,2.50
2023-05-02T06:17:12.518Z,2.45
2023-05-02T06:19:39.310Z,2.80
2023-05-02T06:22:06.769Z,2.22
2023-05-02T06:24:33.612Z,2.25
2023-05-02T06:27:00.452Z,1.95
2023-05-02T06:29:27.254Z,3.00
2023-05-02T06:31:57.292Z,2.63
2023-05-02T06:34:24.248Z,2.75
2023-05-02T06:36:57.619Z,2.50
2023-05-02T06:39:24.893Z,2.95
2023-05-02T06:41:51.768Z,2.65
2023-05-02T06:44:18.829Z,3.38
2023-05-02T06:46:45.760Z,2.42
2023-05-02T06:49:12.586Z,2.30
2023-05-02T06:51:39.776Z,2.40
2023-05-02T06:54:06.914Z,2.45
2023-05-02T06:56:33.822Z,2.40
2023-05-02T06:59:01.185Z,2.42
2023-05-02T07:01:28.217Z,2.10
2023-05-02T07:03:55.141Z,2.20
2023-05-02T07:06:22.042Z,2.35
2023-05-02T07:08:48.948Z,3.00
2023-05-02T07:11:16.183Z,3.03
2023-05-02T07:13:43.191Z,3.75
2023-05-02T07:16:10.105Z,2.80
2023-05-02T07:18:37.262Z,2.70
2023-05-02T07:21:04.276Z,2.88
2023-05-02T07:23:31.337Z,3.28
2023-05-02T07:25:58.237Z,2.65
2023-05-02T07:28:25.121Z,3.05
2023-05-02T07:30:52.335Z,3.22
2023-05-02T07:33:19.255Z,3.80
2023-05-02T07:35:46.153Z,3.20
2023-05-02T07:38:12.951Z,2.60
2023-05-02T07:40:40.009Z,2.80
2023-05-02T07:43:07.518Z,3.45
2023-05-02T07:45:35.862Z,3.75
2023-05-02T07:48:02.708Z,3.60
2023-05-02T07:50:29.674Z,3.50
2023-05-02T07:52:57.186Z,3.30
2023-05-02T07:55:26.583Z,3.25
2023-05-02T07:57:53.844Z,2.72
2023-05-02T08:00:21.197Z,3.72
2023-05-02T08:02:48.220Z,2.83
2023-05-02T08:05:15.142Z,2.47
2023-05-02T08:07:42.620Z,3.00
2023-05-02T08:10:10.541Z,2.55
2023-05-02T08:12:41.777Z,2.55
2023-05-02T08:15:12.850Z,2.75
2023-05-02T08:17:39.773Z,2.20
2023-05-02T08:20:07.651Z,2.40
2023-05-02T08:22:34.556Z,2.88
2023-05-02T08:25:01.664Z,2.28
2023-05-02T08:27:28.493Z,1.98
2023-05-02T08:29:55.965Z,2.10
2023-05-02T08:32:23.875Z,1.60
2023-05-02T08:34:50.891Z,1.85
2023-05-02T08:37:18.503Z,1.90
2023-05-02T08:39:45.359Z,2.38
2023-05-02T08:42:12.324Z,1.90
2023-05-02T08:44:39.214Z,1.98
2023-05-02T08:47:07.853Z,1.90
2023-05-02T08:49:36.563Z,1.92
2023-05-02T08:52:05.122Z,1.75
2023-05-02T08:54:32.677Z,2.88
2023-05-02T08:57:03.625Z,1.77
2023-05-02T08:59:31.148Z,2.00
2023-05-02T09:02:45.297Z,2.58
2023-05-02T09:05:19.097Z,2.03
2023-05-02T09:07:49.332Z,2.10
2023-05-02T09:10:16.271Z,2.15
2023-05-02T09:12:43.194Z,2.63
2023-05-02T09:15:18.232Z,2.95
2023-05-02T09:17:48.714Z,2.70
2023-05-02T09:20:16.872Z,2.72
2023-05-02T09:22:53.033Z,2.60
2023-05-02T09:25:21.058Z,2.60
2023-05-02T09:27:54.278Z,2.33
2023-05-02T09:30:26.785Z,2.60
2023-05-02T09:32:55.813Z,2.88
2023-05-02T09:35:26.279Z,2.70
2023-05-02T09:37:56.130Z,2.28
2023-05-02T09:40:24.450Z,2.70
2023-05-02T09:42:52.728Z,2.30
2023-05-02T09:45:26.776Z,2.10
2023-05-02T09:47:54.313Z,2.72
2023-05-02T09:50:36.829Z,2.55
2023-05-02T09:53:09.596Z,2.50
2023-05-02T09:55:36.866Z,2.42
2023-05-02T09:58:04.097Z,2.30
2023-05-02T10:00:52.348Z,2.10
2023-05-02T10:03:19.912Z,2.33
2023-05-02T10:05:47.851Z,2.25
2023-05-02T10:08:19.288Z,2.40
2023-05-02T10:10:59.249Z,2.70
2023-05-02T10:13:32.142Z,2.45
2023-05-02T10:16:07.434Z,2.40
2023-05-02T10:18:56.769Z,2.10
2023-05-02T10:21:29.777Z,1.90
2023-05-02T10:23:57.436Z,2.20
2023-05-02T10:26:24.954Z,2.65
2023-05-02T10:28:53.951Z,2.63
2023-05-02T10:31:21.853Z,2.30
2023-05-02T10:33:54.698Z,2.15
2023-05-02T10:36:23.690Z,2.78
2023-05-02T10:38:51.361Z,2.47
2023-05-02T10:41:27.320Z,2.92
2023-05-02T10:43:54.304Z,2.90
2023-05-02T10:46:37.085Z,2.42
2023-05-02T10:49:08.588Z,2.13
2023-05-02T10:51:41.962Z,2.38
2023-05-02T10:54:20.901Z,2.97
2023-05-02T10:56:59.487Z,2.35
2023-05-02T10:59:49.305Z,3.25
2023-05-02T11:02:28.395Z,2.75
2023-05-02T11:05:02.694Z,2.10
2023-05-02T11:07:38.053Z,2.85
2023-05-02T11:10:17.130Z,2.83
2023-05-02T11:12:55.490Z,2.95
2023-05-02T11:18:14.451Z,2.78
2023-05-02T11:20:45.857Z,2.60
2023-05-02T11:23:21.882Z,2.70
2023-05-02T11:25:57.448Z,2.60
2023-05-02T11:28:48.846Z,2.83
2023-05-02T11:31:27.898Z,3.08
2023-05-02T11:34:03.627Z,2.22
2023-05-02T11:36:33.532Z,2.30
2023-05-02T11:39:02.173Z,1.98
2023-05-02T11:41:42.865Z,2.10
2023-05-02T11:44:10.332Z,2.33
2023-05-02T11:46:38.707Z,2.13
2023-05-02T11:49:09.784Z,2.03
2023-05-02T11:51:37.422Z,2.30
2023-05-02T11:54:07.647Z,2.50
2023-05-02T11:56:34.711Z,2.25
2023-05-02T11:59:03.996Z,2.78
2023-05-02T12:01:31.422Z,2.88
2023-05-02T12:04:10.436Z,2.88
2023-05-02T12:06:37.441Z,2.50
2023-05-02T12:09:14.173Z,2.97
2023-05-02T12:11:41.386Z,2.50
2023-05-02T12:14:09.225Z,3.28
2023-05-02T12:16:36.322Z,2.83
2023-05-02T12:19:04.296Z,2.63
2023-05-02T12:21:33.425Z,2.40
2023-05-02T12:24:02.411Z,2.55
2023-05-02T12:26:33.690Z,2.40
2023-05-02T12:29:02.691Z,3.13
2023-05-02T12:31:31.660Z,2.80
2023-05-02T12:34:01.129Z,2.42
2023-05-02T12:36:29.409Z,2.72
2023-05-02T12:39:02.175Z,2.40
2023-05-02T12:41:35.956Z,2.95
2023-05-02T12:44:04.340Z,2.33
2023-05-02T12:46:32.234Z,2.92
2023-05-02T12:49:12.069Z,2.63
2023-05-02T12:51:40.785Z,3.20
2023-05-02T12:54:07.629Z,2.83
2023-05-02T12:56:43.786Z,2.70
2023-05-02T12:59:27.207Z,2.65
2023-05-02T13:01:54.296Z,2.97
2023-05-02T13:04:21.183Z,2.70
2023-05-02T13:06:48.171Z,3.10
2023-05-02T13:09:14.985Z,3.47
2023-05-02T13:11:42.583Z,3.22
2023-05-02T13:14:11.505Z,2.97
2023-05-02T13:16:38.477Z,3.63
2023-05-02T13:19:05.734Z,3.47
2023-05-02T13:21:32.605Z,3.72
2023-05-02T13:23:59.394Z,3.42
2023-05-02T13:26:26.255Z,3.47
2023-05-02T13:28:53.048Z,3.33
2023-05-02T13:31:19.931Z,3.47
2023-05-02T13:33:46.803Z,2.97
2023-05-02T13:36:13.627Z,3.22
2023-05-02T13:38:40.579Z,2.88
2023-05-02T13:41:07.440Z,3.20
2023-05-02T13:43:34.266Z,3.38
2023-05-02T13:46:01.254Z,3.00
2023-05-02T13:48:28.237Z,2.83
2023-05-02T13:50:55.043Z,3.28
2023-05-02T13:53:21.836Z,3.28
2023-05-02T13:55:48.658Z,2.85
2023-05-02T13:58:15.548Z,2.97
2023-05-02T14:00:42.646Z,3.20
2023-05-02T14:03:11.219Z,3.20
2023-05-02T14:05:41.073Z,3.40
2023-05-02T14:08:07.843Z,3.50
2023-05-02T14:10:36.363Z,3.33
2023-05-02T14:13:03.683Z,3.60
2023-05-02T14:15:30.624Z,3.72
2023-05-02T14:17:57.581Z,3.28
2023-05-02T14:20:24.616Z,3.67
2023-05-02T14:22:51.499Z,3.25
2023-05-02T14:25:20.491Z,3.20
2023-05-02T14:27:47.566Z,3.53
2023-05-02T14:30:14.451Z,2.92
2023-05-02T14:32:41.243Z,3.20
2023-05-02T14:35:08.904Z,3.83
2023-05-02T14:37:35.929Z,3.63
2023-05-02T14:40:03.045Z,3.60
2023-05-02T14:42:30.282Z,3.97
2023-05-02T14:44:59.563Z,4.20
2023-05-02T14:47:30.898Z,4.10
2023-05-02T14:49:58.060Z,4.15
2023-05-02T14:52:25.209Z,3.88
2023-05-02T14:54:52.123Z,3.90
2023-05-02T14:57:19.244Z,3.75
2023-05-02T14:59:46.250Z,4.05
2023-05-02T15:02:13.221Z,3.97
2023-05-02T15:04:40.090Z,3.47
2023-05-02T15:07:07.362Z,3.50
2023-05-02T15:09:34.314Z,3.60
2023-05-02T15:12:02.396Z,4.13
2023-05-02T15:14:29.383Z,3.30
2023-05-02T15:16:56.718Z,3.83
2023-05-02T15:19:25.122Z,3.30
2023-05-02T15:21:57.216Z,3.65
2023-05-02T15:24:26.988Z,3.83
2023-05-02T15:26:54.146Z,3.60
2023-05-02T15:29:20.960Z,3.40
2023-05-02T15:31:47.853Z,2.90
2023-05-02T15:34:15.206Z,3.30
2023-05-02T15:36:43.126Z,3.35
2023-05-02T15:39:10.000Z,3.20
2023-05-02T15:41:36.774Z,3.80
2023-05-02T15:44:03.916Z,3.80
2023-05-02T15:46:31.050Z,3.53
2023-05-02T15:48:57.902Z,2.92
2023-05-02T15:51:24.659Z,2.88
2023-05-02T15:53:52.679Z,3.10
2023-05-02T15:56:21.548Z,3.72
2023-05-02T15:58:48.858Z,3.10
2023-05-02T16:01:15.809Z,3.47
2023-05-02T16:03:42.927Z,3.53
2023-05-02T16:06:10.008Z,3.33
2023-05-02T16:08:36.880Z,3.47
2023-05-02T16:11:03.710Z,3.83
2023-05-02T16:13:30.608Z,3.53
2023-05-02T16:15:57.681Z,3.25
2023-05-02T16:18:28.302Z,3.50
2023-05-02T16:20:59.618Z,3.67
2023-05-02T16:23:27.307Z,3.30
2023-05-02T16:25:58.670Z,3.45
2023-05-02T16:28:25.732Z,3.50
2023-05-02T16:30:52.642Z,3.60
2023-05-02T16:33:21.438Z,3.78
2023-05-02T16:35:48.395Z,2.97
2023-05-02T16:38:15.284Z,3.45
2023-05-02T16:40:42.154Z,3.42
2023-05-02T16:43:08.974Z,3.30
2023-05-02T16:45:35.814Z,3.50
2023-05-02T16:48:03.501Z,3.33
2023-05-02T16:50:30.393Z,3.45
2023-05-02T16:52:57.183Z,3.40
2023-05-02T16:55:24.069Z,3.33
2023-05-02T16:57:50.926Z,3.55
2023-05-02T17:00:18.374Z,3.40
2023-05-02T17:02:45.533Z,3.92
2023-05-02T17:05:12.413Z,3.10
2023-05-02T17:07:39.258Z,2.95
2023-05-02T17:10:07.446Z,3.35
2023-05-02T17:12:34.303Z,3.03
2023-05-02T17:15:02.918Z,3.47
2023-05-02T17:17:31.290Z,3.10
2023-05-02T17:19:58.427Z,3.95
2023-05-02T17:22:26.169Z,2.90
2023-05-02T17:24:54.881Z,3.22
2023-05-02T17:27:21.779Z,3.00
2023-05-02T17:29:48.666Z,3.05
2023-05-02T17:32:15.997Z,3.28
2023-05-02T17:34:43.561Z,3.28
2023-05-02T17:37:10.683Z,3.10
2023-05-02T17:39:37.488Z,3.25
2023-05-02T17:42:04.584Z,2.75
2023-05-02T17:44:31.550Z,2.90
2023-05-02T17:46:58.462Z,3.33
2023-05-02T17:49:25.801Z,3.10
2023-05-02T17:51:52.624Z,3.20
2023-05-02T17:54:19.810Z,3.03
2023-05-02T17:56:46.897Z,3.53
2023-05-02T17:59:13.734Z,3.45
2023-05-02T18:01:40.563Z,3.75
2023-05-02T18:04:07.814Z,3.38
2023-05-02T18:06:34.955Z,3.17
2023-05-02T18:09:01.865Z,3.63
2023-05-02T18:11:37.619Z,3.17
2023-05-02T18:14:06.139Z,3.45
2023-05-02T18:16:34.495Z,3.80
2023-05-02T18:19:01.749Z,3.30
2023-05-02T18:21:29.027Z,3.15
2023-05-02T18:23:56.920Z,3.63
2023-05-02T18:26:23.765Z,3.38
2023-05-02T18:28:53.514Z,3.20
2023-05-02T18:31:20.918Z,2.80
2023-05-02T18:33:47.838Z,3.15
2023-05-02T18:36:20.431Z,3.00
2023-05-02T18:38:47.249Z,2.90
2023-05-02T18:41:14.017Z,2.80
2023-05-02T18:43:40.837Z,2.50
2023-05-02T18:46:09.338Z,2.67
2023-05-02T18:48:36.948Z,2.05
2023-05-02T18:51:05.957Z,2.72
2023-05-02T18:53:32.785Z,2.10
2023-05-02T18:55:59.637Z,2.47
2023-05-02T18:58:26.755Z,2.95
2023-05-02T19:00:53.734Z,2.17
2023-05-02T19:03:20.712Z,2.28
2023-05-02T19:05:50.024Z,2.20
2023-05-02T19:08:16.973Z,2.60
2023-05-02T19:10:43.753Z,2.78
2023-05-02T19:13:10.593Z,2.40
2023-05-02T19:15:37.687Z,2.40
2023-05-02T19:18:04.609Z,2.30
2023-05-02T19:20:31.501Z,2.60
2023-05-02T19:23:17.643Z,2.30
2023-05-02T19:25:46.558Z,2.40
2023-05-02T19:28:15.600Z,2.65
2023-05-02T19:30:44.429Z,2.38
2023-05-02T19:33:11.772Z,2.63
2023-05-02T19:35:38.815Z,2.60
2023-05-02T19:38:05.690Z,3.10
2023-05-02T19:40:32.870Z,2.55
2023-05-02T19:42:59.766Z,2.53
2023-05-02T19:45:26.915Z,2.78
2023-05-02T19:47:53.836Z,2.10
2023-05-02T19:50:20.643Z,2.60
2023-05-02T19:52:47.421Z,2.47
2023-05-02T19:55:16.054Z,3.00
2023-05-02T19:57:44.615Z,2.67
2023-05-02T20:00:12.971Z,2.55
2023-05-02T20:02:39.959Z,2.65
2023-05-02T20:05:07.780Z,2.55
2023-05-02T20:07:34.550Z,2.50
2023-05-02T20:10:01.686Z,2.90
2023-05-02T20:12:28.713Z,2.92
2023-05-02T20:14:55.541Z,2.47
2023-05-02T20:17:22.307Z,2.90
2023-05-02T20:19:49.095Z,2.80
2023-05-02T20:22:15.974Z,3.70
2023-05-02T20:24:42.752Z,3.50
2023-05-02T20:27:10.022Z,3.08
2023-05-02T20:29:36.820Z,2.38
2023-05-02T20:32:03.794Z,2.70
2023-05-02T20:34:33.866Z,2.80
2023-05-02T20:37:01.556Z,2.40
2023-05-02T20:39:28.385Z,3.08
2023-05-02T20:41:58.313Z,3.05
2023-05-02T20:44:26.399Z,3.75
2023-05-02T20:46:53.328Z,2.70
2023-05-02T20:49:20.129Z,2.60
2023-05-02T20:51:46.966Z,3.50
2023-05-02T20:54:13.772Z,2.83
2023-05-02T20:56:40.739Z,3.00
2023-05-02T20:59:07.844Z,3.22
2023-05-02T21:01:34.822Z,2.63
2023-05-02T21:04:03.461Z,2.75
2023-05-02T21:06:33.811Z,2.22
2023-05-02T21:09:01.949Z,2.70
2023-05-02T21:11:29.256Z,2.10
2023-05-02T21:13:56.130Z,2.38
2023-05-02T21:16:23.101Z,2.30
2023-05-02T21:18:49.959Z,2.40
2023-05-02T21:21:16.890Z,2.80
2023-05-02T21:23:43.904Z,2.40
2023-05-02T21:26:10.664Z,2.13
2023-05-02T21:28:38.741Z,1.80
2023-05-02T21:31:07.874Z,2.33
2023-05-02T21:33:34.874Z,2.38
2023-05-02T21:36:01.822Z,2.17
2023-05-02T21:38:29.058Z,2.83
2023-05-02T21:40:55.952Z,2.50
2023-05-02T21:43:22.880Z,1.98
2023-05-02T21:45:50.616Z,2.53
2023-05-02T21:48:17.768Z,2.75
2023-05-02T21:50:45.266Z,2.72
2023-05-02T21:53:13.079Z,1.98
2023-05-02T21:55:41.031Z,2.22
2023-05-02T21:58:10.664Z,2.80
2023-05-02T22:00:38.922Z,2.78
2023-05-02T22:03:09.065Z,2.60
2023-05-02T22:05:38.869Z,2.10
2023-05-02T22:08:07.850Z,2.53
2023-05-02T22:10:36.951Z,2.70
2023-05-02T22:13:04.418Z,2.55
2023-05-02T22:15:32.652Z,2.35
2023-05-02T22:17:59.973Z,3.30
2023-05-02T22:20:27.753Z,2.80
2023-05-02T22:22:54.763Z,2.75
2023-05-02T22:25:21.686Z,2.22
2023-05-02T22:27:48.485Z,2.72
2023-05-02T22:30:15.350Z,2.47
2023-05-02T22:32:42.405Z,3.20
2023-05-02T22:35:10.731Z,2.70
2023-05-02T22:37:37.831Z,2.35
2023-05-02T22:40:08.232Z,2.95
2023-05-02T22:42:35.072Z,2.63
2023-05-02T22:45:07.484Z,3.03
2023-05-02T22:47:34.370Z,2.47
2023-05-02T22:50:05.610Z,2.80
2023-05-02T22:52:37.743Z,2.53
2023-05-02T22:55:09.509Z,2.42
2023-05-02T22:57:37.260Z,2.75
2023-05-02T23:00:05.792Z,3.42
2023-05-02T23:02:33.566Z,2.70
2023-05-02T23:05:01.670Z,2.30
2023-05-02T23:07:28.517Z,2.20
2023-05-02T23:09:55.765Z,2.60
2023-05-02T23:12:22.589Z,2.85
2023-05-02T23:14:49.471Z,2.28
2023-05-02T23:17:16.263Z,2.17
2023-05-02T23:19:43.073Z,2.50
2023-05-02T23:22:09.902Z,2.60
2023-05-02T23:24:36.688Z,2.60
2023-05-02T23:27:03.795Z,2.45
2023-05-02T23:29:30.654Z,2.42
2023-05-02T23:31:57.718Z,2.90
2023-05-02T23:34:24.767Z,2.42
2023-05-02T23:36:52.691Z,2.75
2023-05-02T23:39:19.757Z,2.85
2023-05-02T23:41:46.689Z,2.45
2023-05-02T23:44:13.508Z,2.45
2023-05-02T23:46:40.354Z,2.72
2023-05-02T23:49:08.668Z,2.70
2023-05-02T23:51:37.690Z,2.95
2023-05-02T23:54:04.696Z,2.03
2023-05-02T23:56:31.562Z,2.50
2023-05-02T23:58:58.350Z,2.70
